Kanesville, Utah
Current Conditions -  °F | °C
As of 10:53 AM on Monday 24 Nov 2014 (Local Time) from KOGD Reporting Station
Clear Clear  
Wind Chill: 32°   Ceiling: Unl
Heat Index: 39°   Visibility: 10mi
Dew Point: 23°   Wind: 12mph
Humidity: 53%   Direction: 340°NNW
Pressure: 30.34"   Gusts: NA
Location:  41.1783°N, 112.12°W
Report Text: KOGD 241753Z AUTO 34010KT 10SM CLR 04/M05 A3034 RMK AO2 SLP279 T00391050 10039 20006 51026 TSNO
Loading
Personal Weather Stations






























Interactive Weather Map New forecast layout! Learn more

10-Day Weather Forecast

Advertisements
Track Severe Weather on mobile